createdAt,value
2024-02-09T00:01:44.191Z,985.0
2024-02-09T00:06:30.679Z,985.0
2024-02-09T00:12:36.392Z,985.0
2024-02-09T00:17:10.013Z,984.9
2024-02-09T00:21:52.414Z,984.9
2024-02-09T00:27:18.818Z,984.7
2024-02-09T00:32:05.161Z,984.7
2024-02-09T00:38:07.685Z,984.5
2024-02-09T00:42:21.081Z,984.5
2024-02-09T00:49:18.039Z,984.4
2024-02-09T00:54:06.354Z,984.3
2024-02-09T00:57:40.459Z,984.2
2024-02-09T01:02:47.893Z,984.1
2024-02-09T01:07:54.200Z,984.2
2024-02-09T01:13:00.629Z,984.1
2024-02-09T01:18:07.211Z,983.8
2024-02-09T01:23:13.542Z,983.7
2024-02-09T01:28:20.065Z,983.7
2024-02-09T01:33:25.345Z,983.6
2024-02-09T01:38:56.747Z,983.5
2024-02-09T01:44:03.190Z,983.6
2024-02-09T01:48:44.532Z,983.5
2024-02-09T01:53:51.865Z,983.3
2024-02-09T01:59:42.401Z,983.2
2024-02-09T02:04:04.761Z,983.1
2024-02-09T02:09:11.047Z,982.9
2024-02-09T02:14:41.464Z,982.9
2024-02-09T02:25:09.210Z,982.8
2024-02-09T02:29:41.685Z,982.8
2024-02-09T02:36:22.940Z,982.7
2024-02-09T02:39:57.850Z,982.5
2024-02-09T02:45:40.557Z,982.4
2024-02-09T02:50:13.139Z,982.4
2024-02-09T02:55:19.707Z,982.2
2024-02-09T03:00:30.103Z,982.0
2024-02-09T03:05:36.766Z,981.9
2024-02-09T03:11:26.956Z,982.0
2024-02-09T03:15:49.223Z,981.8
2024-02-09T03:21:15.656Z,981.7
2024-02-09T03:26:02.007Z,981.6
2024-02-09T03:31:32.466Z,981.6
2024-02-09T03:36:14.800Z,981.5
2024-02-09T03:41:21.156Z,981.5
2024-02-09T03:47:11.636Z,981.5
2024-02-09T03:51:36.987Z,981.4
2024-02-09T03:56:43.376Z,981.4
2024-02-09T04:01:49.799Z,981.3
2024-02-09T04:07:16.225Z,981.3
2024-02-09T04:12:02.607Z,981.3
2024-02-09T04:17:09.005Z,981.3
2024-02-09T04:22:15.380Z,981.3
2024-02-09T04:27:21.739Z,981.2
2024-02-09T04:32:28.168Z,981.1
2024-02-09T04:37:34.554Z,981.0
2024-02-09T04:42:59.991Z,981.0
2024-02-09T04:47:51.327Z,981.0
2024-02-09T04:52:53.700Z,980.9
2024-02-09T04:58:00.124Z,980.9
2024-02-09T05:23:30.282Z,980.6
2024-02-09T05:28:37.813Z,980.5
2024-02-09T05:33:44.022Z,980.5
2024-02-09T05:38:50.397Z,980.5
2024-02-09T05:43:56.735Z,980.5
2024-02-09T05:49:03.221Z,980.5
2024-02-09T05:54:09.490Z,980.4
2024-02-09T05:59:59.981Z,980.4
2024-02-09T06:04:46.330Z,980.4
2024-02-09T06:09:29.005Z,980.4
2024-02-09T06:14:35.371Z,980.2
2024-02-09T06:19:41.871Z,980.2
2024-02-09T06:24:48.164Z,980.3
2024-02-09T06:30:14.552Z,980.2
2024-02-09T06:35:02.351Z,980.3
2024-02-09T06:40:07.516Z,980.3
2024-02-09T06:50:21.975Z,980.3
2024-02-09T06:56:02.540Z,980.3
2024-02-09T07:01:45.174Z,980.3
2024-02-09T07:06:51.349Z,980.3
2024-02-09T07:17:07.890Z,980.4
2024-02-09T07:22:13.263Z,980.3
2024-02-09T07:27:20.626Z,980.4
2024-02-09T07:32:26.166Z,980.4
2024-02-09T07:38:07.440Z,980.3
2024-02-09T07:42:39.760Z,980.2
2024-02-09T07:47:46.336Z,980.3
2024-02-09T07:53:16.645Z,980.3
2024-02-09T08:03:06.180Z,980.3
2024-02-09T08:08:13.911Z,980.3
2024-02-09T08:13:21.458Z,980.3
2024-02-09T08:19:03.080Z,980.2
2024-02-09T08:39:51.390Z,980.2
2024-02-09T08:44:59.167Z,980.1
2024-02-09T08:50:05.365Z,980.1
2024-02-09T08:55:11.804Z,980.0
2024-02-09T09:00:18.101Z,980.2
2024-02-09T09:05:24.480Z,980.3
2024-02-09T09:10:31.109Z,980.3
2024-02-09T09:16:01.568Z,980.3
2024-02-09T09:21:03.935Z,980.2
2024-02-09T09:25:50.476Z,980.3
2024-02-09T09:30:56.668Z,980.3
2024-02-09T09:36:03.083Z,980.3
2024-02-09T09:41:09.539Z,980.1
2024-02-09T09:46:15.914Z,980.1
2024-02-09T09:51:42.222Z,980.2
2024-02-09T09:56:28.583Z,980.1
2024-02-09T10:01:35.271Z,980.2
2024-02-09T10:06:41.607Z,980.2
2024-02-09T10:11:48.113Z,980.2
2024-02-09T10:16:54.488Z,980.3
2024-02-09T10:22:03.426Z,980.3
2024-02-09T10:27:07.263Z,980.4
2024-02-09T10:32:12.651Z,980.3
2024-02-09T10:37:40.298Z,980.4
2024-02-09T10:42:50.596Z,980.3
2024-02-09T10:47:32.086Z,980.4
2024-02-09T10:52:39.475Z,980.3
2024-02-09T10:58:29.934Z,980.3
2024-02-09T11:02:54.731Z,980.4
2024-02-09T11:07:58.540Z,980.5
2024-02-09T11:13:24.990Z,980.5
2024-02-09T11:18:11.429Z,980.4
2024-02-09T11:23:57.809Z,980.4
2024-02-09T11:28:24.238Z,980.3
2024-02-09T11:33:30.682Z,980.4
2024-02-09T11:38:36.958Z,980.3
2024-02-09T11:43:43.418Z,980.4
2024-02-09T11:48:49.816Z,980.4
2024-02-09T11:53:56.106Z,980.4
2024-02-09T11:59:02.593Z,980.3
2024-02-09T12:04:33.595Z,980.3
2024-02-09T12:09:15.752Z,980.4
2024-02-09T12:14:42.083Z,980.4
2024-02-09T12:19:28.618Z,980.4
2024-02-09T12:24:35.033Z,980.3
2024-02-09T12:35:45.636Z,980.5
2024-02-09T12:44:02.820Z,980.5
2024-02-09T12:49:07.929Z,980.5
2024-02-09T12:58:42.538Z,980.5
2024-02-09T13:03:49.951Z,980.5
2024-02-09T13:10:10.416Z,980.6
2024-02-09T13:15:41.939Z,980.7
2024-02-09T13:20:44.452Z,980.7
2024-02-09T13:25:34.825Z,980.7
2024-02-09T13:30:37.100Z,980.6
2024-02-09T13:35:47.133Z,980.6
2024-02-09T13:41:37.698Z,980.7
2024-02-09T13:45:59.971Z,980.6
2024-02-09T13:51:06.371Z,980.7
2024-02-09T13:56:12.729Z,980.7
2024-02-09T14:01:43.167Z,980.7
2024-02-09T14:06:25.611Z,980.8
2024-02-09T14:11:31.860Z,980.8
2024-02-09T14:17:05.896Z,980.9
2024-02-09T14:21:48.269Z,980.9
2024-02-09T14:26:55.883Z,980.9
2024-02-09T14:32:37.419Z,980.9
2024-02-09T14:39:21.023Z,981.0
2024-02-09T14:49:10.280Z,981.0
2024-02-09T14:54:40.628Z,981.0
2024-02-09T14:59:22.926Z,981.0
2024-02-09T15:04:29.331Z,981.0
2024-02-09T15:14:15.002Z,981.0
2024-02-09T15:24:29.720Z,981.1
2024-02-09T15:36:08.444Z,980.9
2024-02-09T15:52:54.036Z,981.0
2024-02-09T16:14:26.241Z,980.9
2024-02-09T16:19:33.937Z,980.8
2024-02-09T16:25:21.087Z,980.8
2024-02-09T16:29:49.403Z,980.9
2024-02-09T16:34:32.783Z,980.9
2024-02-09T16:39:59.135Z,980.9
2024-02-09T16:46:27.779Z,981.0
2024-02-09T16:50:11.974Z,981.0
2024-02-09T16:55:36.489Z,981.0
2024-02-09T17:01:47.186Z,981.0
2024-02-09T17:05:33.380Z,980.9
2024-02-09T17:10:39.922Z,981.1
2024-02-09T17:15:50.247Z,981.2
2024-02-09T17:20:32.725Z,981.2
2024-02-09T17:26:49.132Z,981.3
2024-02-09T17:33:06.953Z,981.2
2024-02-09T17:38:07.054Z,981.2
2024-02-09T17:42:29.326Z,981.3
2024-02-09T17:47:35.745Z,981.3
2024-02-09T17:53:01.306Z,981.4
2024-02-09T17:57:51.820Z,981.3
2024-02-09T18:02:37.057Z,981.4
2024-02-09T18:07:43.581Z,981.3
2024-02-09T18:13:14.108Z,981.5
2024-02-09T18:17:56.406Z,981.4
2024-02-09T18:23:02.752Z,981.5
2024-02-09T18:28:33.202Z,981.5
2024-02-09T18:33:15.554Z,981.4
2024-02-09T18:38:21.877Z,981.5
2024-02-09T18:43:28.387Z,981.5
2024-02-09T18:48:34.826Z,981.7
2024-02-09T18:54:05.249Z,981.5
2024-02-09T18:58:37.809Z,981.6
2024-02-09T19:03:55.233Z,981.5
2024-02-09T19:09:35.676Z,981.5
2024-02-09T19:14:43.200Z,981.5
2024-02-09T19:20:23.669Z,981.5
2024-02-09T19:25:21.088Z,981.5
2024-02-09T19:30:37.437Z,981.6
2024-02-09T19:35:43.850Z,981.5
2024-02-09T19:40:50.246Z,981.5
2024-02-09T19:45:46.544Z,981.4
2024-02-09T19:50:52.952Z,981.4
2024-02-09T19:57:40.397Z,981.5
2024-02-09T20:03:12.812Z,981.6
2024-02-09T20:08:14.262Z,981.5
2024-02-09T20:13:00.569Z,981.6
2024-02-09T20:18:27.358Z,981.6
2024-02-09T20:23:03.349Z,981.6
2024-02-09T20:29:15.919Z,981.6
2024-02-09T20:34:27.278Z,981.6
2024-02-09T20:40:05.710Z,981.6
2024-02-09T20:44:36.050Z,981.5
2024-02-09T20:49:21.377Z,981.7
2024-02-09T20:54:28.767Z,981.7
2024-02-09T21:00:09.266Z,981.8
2024-02-09T21:11:08.280Z,981.8
2024-02-09T21:16:39.417Z,981.8
2024-02-09T21:21:45.611Z,981.7
2024-02-09T21:26:31.978Z,981.9
2024-02-09T21:32:22.577Z,981.8
2024-02-09T21:36:44.769Z,981.8
2024-02-09T21:41:51.176Z,981.9
2024-02-09T21:47:21.641Z,981.8
2024-02-09T21:52:04.156Z,981.7
2024-02-09T21:57:10.559Z,981.7
2024-02-09T22:02:37.058Z,981.8
2024-02-09T22:07:23.446Z,981.7
2024-02-09T22:12:29.759Z,981.8
2024-02-09T22:17:36.695Z,981.8
2024-02-09T22:22:42.588Z,981.8
2024-02-09T22:27:48.941Z,981.9
2024-02-09T22:32:55.420Z,981.8
2024-02-09T22:38:01.760Z,981.8
2024-02-09T22:43:08.080Z,981.8
2024-02-09T22:48:14.607Z,981.9
2024-02-09T22:53:11.069Z,981.9
2024-02-09T22:58:51.837Z,981.9
2024-02-09T23:03:34.069Z,981.9
2024-02-09T23:08:30.484Z,981.9
2024-02-09T23:14:10.812Z,981.9
2024-02-09T23:18:53.165Z,981.9
2024-02-09T23:23:59.531Z,982.0
2024-02-09T23:29:49.991Z,981.9
2024-02-09T23:34:12.406Z,982.1
2024-02-09T23:39:32.790Z,982.0
2024-02-09T23:44:25.111Z,982.1
2024-02-09T23:49:31.685Z,982.1
2024-02-09T23:54:38.009Z,982.0
2024-02-09T23:59:44.356Z,982.1
